createdAt,value
2022-09-28T00:01:02.215Z,1.60
2022-09-28T00:03:30.564Z,2.03
2022-09-28T00:06:07.673Z,1.60
2022-09-28T00:08:36.498Z,1.50
2022-09-28T00:11:05.521Z,1.50
2022-09-28T00:13:34.354Z,1.23
2022-09-28T00:16:03.797Z,1.40
2022-09-28T00:18:32.273Z,1.50
2022-09-28T00:21:06.610Z,1.20
2022-09-28T00:23:35.054Z,1.20
2022-09-28T00:26:04.339Z,1.20
2022-09-28T00:28:32.921Z,1.00
2022-09-28T00:31:04.568Z,1.23
2022-09-28T00:33:32.940Z,1.17
2022-09-28T00:36:01.385Z,1.00
2022-09-28T00:38:31.334Z,1.17
2022-09-28T00:40:59.741Z,1.10
2022-09-28T00:43:28.268Z,1.03
2022-09-28T00:45:59.953Z,1.30
2022-09-28T00:48:29.991Z,1.00
2022-09-28T00:50:58.996Z,1.10
2022-09-28T00:53:28.397Z,1.17
2022-09-28T00:55:59.152Z,1.00
2022-09-28T00:58:28.729Z,1.13
2022-09-28T01:00:58.100Z,1.17
2022-09-28T01:03:27.091Z,1.17
2022-09-28T01:05:56.834Z,0.97
2022-09-28T01:08:27.148Z,1.10
2022-09-28T01:10:56.061Z,1.17
2022-09-28T01:13:26.384Z,1.00
2022-09-28T01:16:00.009Z,1.00
2022-09-28T01:18:35.567Z,1.07
2022-09-28T01:21:05.699Z,1.10
2022-09-28T01:23:39.330Z,1.30
2022-09-28T01:26:19.393Z,1.13
2022-09-28T01:28:49.716Z,1.20
2022-09-28T01:31:19.371Z,1.20
2022-09-28T01:33:49.294Z,1.10
2022-09-28T01:36:20.933Z,1.20
2022-09-28T01:38:51.131Z,1.40
2022-09-28T01:41:21.774Z,1.30
2022-09-28T01:43:52.301Z,1.30
2022-09-28T01:46:22.334Z,1.13
2022-09-28T01:48:53.400Z,1.10
2022-09-28T01:51:26.426Z,1.40
2022-09-28T01:53:57.289Z,0.97
2022-09-28T01:56:29.241Z,1.17
2022-09-28T01:59:00.231Z,1.20
2022-09-28T02:01:30.619Z,1.17
2022-09-28T02:04:03.692Z,1.00
2022-09-28T02:06:35.038Z,1.00
2022-09-28T02:09:07.293Z,1.10
2022-09-28T02:11:50.370Z,1.33
2022-09-28T02:14:20.919Z,1.13
2022-09-28T02:16:52.445Z,1.50
2022-09-28T02:19:28.313Z,1.30
2022-09-28T02:22:01.033Z,0.90
2022-09-28T02:24:30.840Z,1.10
2022-09-28T02:27:05.285Z,1.20
2022-09-28T02:29:36.028Z,1.20
2022-09-28T02:32:04.460Z,1.20
2022-09-28T02:34:33.129Z,1.30
2022-09-28T02:37:01.802Z,1.00
2022-09-28T02:39:30.368Z,1.20
2022-09-28T02:42:05.527Z,1.20
2022-09-28T02:44:43.996Z,0.90
2022-09-28T02:47:23.639Z,1.20
2022-09-28T02:49:56.214Z,1.10
2022-09-28T02:52:35.129Z,1.10
2022-09-28T02:55:18.133Z,1.30
2022-09-28T02:57:54.309Z,1.20
2022-09-28T03:00:25.610Z,1.30
2022-09-28T03:03:00.204Z,1.37
2022-09-28T03:05:34.583Z,1.23
2022-09-28T03:08:03.755Z,1.10
2022-09-28T03:10:37.274Z,1.40
2022-09-28T03:13:07.745Z,1.00
2022-09-28T03:15:38.029Z,0.93
2022-09-28T03:18:08.056Z,1.07
2022-09-28T03:20:36.479Z,1.23
2022-09-28T03:23:24.852Z,1.10
2022-09-28T03:25:53.619Z,1.10
2022-09-28T03:28:23.428Z,1.10
2022-09-28T03:30:51.965Z,1.00
2022-09-28T03:33:20.789Z,1.03
2022-09-28T03:35:49.202Z,1.13
2022-09-28T03:38:18.226Z,0.90
2022-09-28T03:40:54.048Z,1.10
2022-09-28T03:43:24.105Z,1.10
2022-09-28T03:45:55.053Z,1.60
2022-09-28T03:48:27.724Z,0.97
2022-09-28T03:51:01.269Z,1.07
2022-09-28T03:53:30.053Z,1.30
2022-09-28T03:56:04.083Z,0.90
2022-09-28T03:58:34.609Z,0.97
2022-09-28T04:01:04.441Z,1.00
2022-09-28T04:03:33.056Z,1.20
2022-09-28T04:06:01.476Z,0.93
2022-09-28T04:08:30.315Z,1.03
2022-09-28T04:10:59.033Z,1.00
2022-09-28T04:13:28.779Z,1.00
2022-09-28T04:15:59.528Z,0.90
2022-09-28T04:18:30.493Z,1.33
2022-09-28T04:21:18.231Z,1.07
2022-09-28T04:23:50.665Z,1.00
2022-09-28T04:26:20.132Z,0.97
2022-09-28T04:29:07.240Z,0.90
2022-09-28T04:31:40.906Z,0.83
2022-09-28T04:34:09.387Z,0.80
2022-09-28T04:36:37.816Z,0.83
2022-09-28T04:39:06.468Z,0.77
2022-09-28T04:41:35.602Z,0.80
2022-09-28T04:44:04.295Z,0.83
2022-09-28T04:46:45.096Z,0.90
2022-09-28T04:49:35.378Z,1.00
2022-09-28T04:52:17.861Z,1.07
2022-09-28T04:54:48.710Z,0.90
2022-09-28T04:57:18.175Z,0.80
2022-09-28T04:59:46.792Z,0.90
2022-09-28T05:02:15.952Z,0.80
2022-09-28T05:05:04.464Z,1.07
2022-09-28T05:07:35.823Z,0.90
2022-09-28T05:10:07.133Z,0.97
2022-09-28T05:12:36.079Z,1.00
2022-09-28T05:15:05.225Z,0.97
2022-09-28T05:17:33.629Z,1.00
2022-09-28T05:20:21.049Z,1.10
2022-09-28T05:22:52.754Z,0.80
2022-09-28T05:25:21.799Z,1.00
2022-09-28T05:28:22.141Z,1.00
2022-09-28T05:31:16.777Z,1.30
2022-09-28T05:34:20.954Z,1.10
2022-09-28T05:36:50.945Z,1.27
2022-09-28T05:39:20.337Z,1.10
2022-09-28T05:41:48.817Z,0.90
2022-09-28T05:44:17.508Z,1.10
2022-09-28T05:46:46.119Z,1.00
2022-09-28T05:49:14.886Z,1.07
2022-09-28T05:51:43.498Z,1.10
2022-09-28T05:54:13.429Z,1.30
2022-09-28T05:56:45.838Z,0.97
2022-09-28T05:59:14.707Z,1.00
2022-09-28T06:01:43.532Z,1.13
2022-09-28T06:04:14.616Z,1.00
2022-09-28T06:06:44.357Z,0.90
2022-09-28T06:09:14.231Z,1.20
2022-09-28T06:12:08.595Z,1.00
2022-09-28T06:14:43.241Z,1.00
2022-09-28T06:17:12.698Z,1.23
2022-09-28T06:19:41.381Z,1.10
2022-09-28T06:22:27.405Z,1.00
2022-09-28T06:25:15.638Z,1.03
2022-09-28T06:27:44.386Z,1.37
2022-09-28T06:30:13.435Z,1.13
2022-09-28T06:32:42.108Z,1.13
2022-09-28T06:35:10.806Z,1.10
2022-09-28T06:37:39.781Z,1.00
2022-09-28T06:40:08.780Z,0.90
2022-09-28T06:42:39.009Z,0.90
2022-09-28T06:45:33.620Z,0.87
2022-09-28T06:48:21.307Z,0.80
2022-09-28T06:50:51.798Z,0.80
2022-09-28T06:53:33.085Z,0.67
2022-09-28T06:56:10.478Z,0.70
2022-09-28T06:58:40.274Z,0.90
2022-09-28T07:01:09.217Z,0.93
2022-09-28T07:03:45.018Z,0.70
2022-09-28T07:06:32.070Z,0.70
2022-09-28T07:09:31.762Z,1.00
2022-09-28T07:12:14.639Z,0.77
2022-09-28T07:14:57.492Z,0.80
2022-09-28T07:17:28.818Z,0.63
2022-09-28T07:20:10.630Z,0.90
2022-09-28T07:22:45.332Z,0.70
2022-09-28T07:25:19.763Z,0.80
2022-09-28T07:28:00.607Z,0.70
2022-09-28T07:30:49.113Z,0.60
2022-09-28T07:33:38.034Z,0.70
2022-09-28T07:36:20.994Z,0.50
2022-09-28T07:38:49.688Z,0.53
2022-09-28T07:41:22.519Z,0.90
2022-09-28T07:43:52.827Z,0.80
2022-09-28T07:46:22.954Z,0.90
2022-09-28T07:49:08.350Z,0.60
2022-09-28T07:52:06.116Z,0.50
2022-09-28T07:54:40.485Z,0.50
2022-09-28T07:57:33.179Z,0.70
2022-09-28T08:00:14.219Z,0.70
2022-09-28T08:02:44.021Z,1.00
2022-09-28T08:05:13.947Z,0.83
2022-09-28T08:07:44.515Z,0.90
2022-09-28T08:10:13.681Z,0.80
2022-09-28T08:13:18.267Z,1.00
2022-09-28T08:16:15.949Z,0.80
2022-09-28T08:19:08.466Z,0.90
2022-09-28T08:21:44.987Z,0.80
2022-09-28T08:24:14.579Z,0.80
2022-09-28T08:26:44.088Z,0.80
2022-09-28T08:29:14.530Z,0.90
2022-09-28T08:31:51.813Z,0.80
2022-09-28T08:34:44.353Z,0.90
2022-09-28T08:37:31.121Z,1.20
2022-09-28T08:40:25.029Z,1.30
2022-09-28T08:43:26.810Z,1.20
2022-09-28T08:46:02.759Z,1.07
2022-09-28T08:49:24.169Z,1.10
2022-09-28T08:52:16.311Z,1.00
2022-09-28T08:55:11.779Z,1.00
2022-09-28T08:57:46.355Z,1.70
2022-09-28T09:00:22.056Z,0.97
2022-09-28T09:02:50.749Z,0.90
2022-09-28T09:05:24.720Z,0.90
2022-09-28T09:08:10.843Z,0.83
2022-09-28T09:10:47.656Z,1.00
2022-09-28T09:13:28.199Z,1.00
2022-09-28T09:15:58.116Z,0.90
2022-09-28T09:18:56.554Z,0.90
2022-09-28T09:21:42.113Z,1.20
2022-09-28T09:24:25.037Z,0.90
2022-09-28T09:26:58.099Z,1.07
2022-09-28T09:29:34.386Z,1.00
2022-09-28T09:32:11.012Z,1.00
2022-09-28T09:34:56.210Z,0.80
2022-09-28T09:37:58.657Z,0.90
2022-09-28T09:41:09.648Z,1.07
2022-09-28T09:44:04.611Z,1.70
2022-09-28T09:47:04.649Z,1.93
2022-09-28T09:49:45.549Z,1.07
2022-09-28T09:52:17.267Z,0.83
2022-09-28T09:54:48.674Z,0.80
2022-09-28T09:57:35.990Z,1.00
2022-09-28T10:00:17.507Z,0.90
2022-09-28T10:03:05.707Z,0.93
2022-09-28T10:05:40.972Z,1.10
2022-09-28T10:08:15.209Z,1.10
2022-09-28T10:10:50.293Z,0.90
2022-09-28T10:13:23.267Z,1.23
2022-09-28T10:15:56.325Z,0.97
2022-09-28T10:18:34.210Z,1.20
2022-09-28T10:21:23.156Z,1.30
2022-09-28T10:23:59.663Z,1.10
2022-09-28T10:26:32.008Z,1.13
2022-09-28T10:29:04.466Z,1.30
2022-09-28T10:31:39.182Z,1.23
2022-09-28T10:34:14.933Z,1.57
2022-09-28T10:36:52.791Z,1.40
2022-09-28T10:39:27.637Z,1.40
2022-09-28T10:41:56.354Z,1.30
2022-09-28T10:44:30.717Z,1.20
2022-09-28T10:47:19.767Z,1.20
2022-09-28T10:49:49.606Z,1.00
2022-09-28T10:52:38.819Z,1.20
2022-09-28T10:55:26.411Z,1.10
2022-09-28T10:57:54.865Z,1.30
2022-09-28T11:00:33.555Z,1.23
2022-09-28T11:03:20.765Z,1.10
2022-09-28T11:05:56.566Z,1.23
2022-09-28T11:08:28.582Z,1.30
2022-09-28T11:11:04.261Z,1.20
2022-09-28T11:13:33.369Z,1.20
2022-09-28T11:16:09.079Z,1.00
2022-09-28T11:18:39.590Z,1.70
2022-09-28T11:21:13.250Z,1.43
2022-09-28T11:23:57.288Z,1.70
2022-09-28T11:26:26.545Z,1.70
2022-09-28T11:28:55.510Z,2.30
2022-09-28T11:31:36.086Z,1.90
2022-09-28T11:34:16.789Z,2.27
2022-09-28T11:37:15.374Z,1.80
2022-09-28T11:39:50.814Z,1.83
2022-09-28T11:42:25.669Z,1.40
2022-09-28T11:44:56.529Z,1.40
2022-09-28T11:47:51.651Z,1.70
2022-09-28T11:50:28.691Z,2.10
2022-09-28T11:53:01.421Z,1.90
2022-09-28T11:55:37.381Z,1.77
2022-09-28T11:58:08.146Z,1.47
2022-09-28T12:00:39.349Z,1.60
2022-09-28T12:03:10.411Z,1.80
2022-09-28T12:05:43.056Z,1.50
2022-09-28T12:08:15.276Z,1.77
2022-09-28T12:11:04.307Z,1.80
2022-09-28T12:13:56.125Z,2.10
2022-09-28T12:17:00.405Z,1.97
2022-09-28T12:19:17.830Z,1.90
2022-09-28T12:21:51.219Z,1.80
2022-09-28T12:24:22.153Z,1.77
2022-09-28T12:26:54.218Z,1.80
2022-09-28T12:29:24.888Z,2.00
2022-09-28T12:31:55.729Z,1.73
2022-09-28T12:34:24.508Z,1.90
2022-09-28T12:36:58.977Z,1.90
2022-09-28T12:39:56.480Z,2.20
2022-09-28T12:42:34.130Z,2.50
2022-09-28T12:45:21.996Z,2.57
2022-09-28T12:48:11.112Z,1.90
2022-09-28T12:50:48.678Z,2.17
2022-09-28T12:53:37.179Z,2.20
2022-09-28T12:56:06.514Z,2.53
2022-09-28T12:58:48.253Z,2.40
2022-09-28T13:01:31.810Z,1.80
2022-09-28T13:04:14.139Z,1.90
2022-09-28T13:06:47.164Z,2.00
2022-09-28T13:09:21.589Z,2.30
2022-09-28T13:11:54.715Z,2.40
2022-09-28T13:14:33.674Z,2.20
2022-09-28T13:17:05.118Z,2.50
2022-09-28T13:19:38.817Z,2.33
2022-09-28T13:22:18.681Z,2.77
2022-09-28T13:24:49.095Z,2.37
2022-09-28T13:27:19.338Z,2.30
2022-09-28T13:29:50.317Z,2.07
2022-09-28T13:32:19.486Z,2.73
2022-09-28T13:34:50.470Z,2.60
2022-09-28T13:37:24.116Z,2.37
2022-09-28T13:39:56.518Z,2.87
2022-09-28T13:42:27.038Z,2.10
2022-09-28T13:45:19.444Z,2.30
2022-09-28T13:47:56.951Z,2.50
2022-09-28T13:50:29.825Z,2.73
2022-09-28T13:53:02.371Z,2.50
2022-09-28T13:55:35.857Z,2.60
2022-09-28T13:58:05.263Z,2.43
2022-09-28T14:00:38.130Z,1.97
2022-09-28T14:03:14.940Z,2.40
2022-09-28T14:05:47.958Z,2.30
2022-09-28T14:08:31.034Z,2.17
2022-09-28T14:11:24.669Z,2.30
2022-09-28T14:14:03.404Z,2.30
2022-09-28T14:16:32.597Z,1.83
2022-09-28T14:19:03.326Z,2.03
2022-09-28T14:21:46.583Z,1.90
2022-09-28T14:24:22.738Z,2.50
2022-09-28T14:27:05.959Z,1.90
2022-09-28T14:29:37.277Z,2.07
2022-09-28T14:32:06.928Z,2.03
2022-09-28T14:34:37.184Z,2.10
2022-09-28T14:37:24.674Z,2.00
2022-09-28T14:40:11.177Z,2.10
2022-09-28T14:42:40.227Z,1.87
2022-09-28T14:45:35.888Z,1.60
2022-09-28T14:48:22.239Z,1.80
2022-09-28T14:50:55.711Z,1.90
2022-09-28T14:53:25.350Z,1.87
2022-09-28T14:55:56.624Z,2.00
2022-09-28T14:58:26.776Z,1.50
2022-09-28T15:01:02.057Z,1.60
2022-09-28T15:03:32.742Z,1.40
2022-09-28T15:06:02.784Z,1.70
2022-09-28T15:08:38.207Z,1.63
2022-09-28T15:11:07.004Z,1.47
2022-09-28T15:13:35.624Z,1.40
2022-09-28T15:16:06.712Z,1.60
2022-09-28T15:18:51.771Z,1.63
2022-09-28T15:21:22.269Z,1.20
2022-09-28T15:23:50.902Z,1.70
2022-09-28T15:26:24.139Z,1.83
2022-09-28T15:28:52.775Z,1.60
2022-09-28T15:31:23.097Z,2.37
2022-09-28T15:34:09.392Z,1.40
2022-09-28T15:36:40.256Z,1.30
2022-09-28T15:39:13.656Z,1.20
2022-09-28T15:41:42.559Z,1.50
2022-09-28T15:44:23.461Z,1.60
2022-09-28T15:46:53.601Z,1.87
2022-09-28T15:49:25.699Z,1.47
2022-09-28T15:51:57.043Z,1.43
2022-09-28T15:54:26.661Z,1.83
2022-09-28T15:56:57.790Z,1.47
2022-09-28T15:59:31.921Z,1.43
2022-09-28T16:02:08.266Z,1.50
2022-09-28T16:04:38.279Z,1.50
2022-09-28T16:07:18.963Z,1.70
2022-09-28T16:09:58.514Z,1.40
2022-09-28T16:12:31.253Z,1.70
2022-09-28T16:15:01.003Z,1.70
2022-09-28T16:17:32.352Z,2.03
2022-09-28T16:20:01.345Z,1.73
2022-09-28T16:22:32.743Z,1.70
2022-09-28T16:25:01.875Z,2.03
2022-09-28T16:27:31.339Z,2.13
2022-09-28T16:30:15.500Z,2.10
2022-09-28T16:32:50.046Z,2.20
2022-09-28T16:35:20.736Z,1.70
2022-09-28T16:37:51.097Z,2.00
2022-09-28T16:40:19.507Z,1.93
2022-09-28T16:42:49.299Z,1.70
2022-09-28T16:45:19.898Z,1.90
2022-09-28T16:47:52.874Z,1.77
2022-09-28T16:50:22.288Z,1.70
2022-09-28T16:53:10.927Z,1.83
2022-09-28T16:55:40.969Z,2.07
2022-09-28T16:58:09.972Z,2.10
2022-09-28T17:00:38.539Z,2.27
2022-09-28T17:03:13.073Z,3.30
2022-09-28T17:05:41.500Z,4.50
2022-09-28T17:08:14.704Z,4.33
2022-09-28T17:11:09.775Z,3.67
2022-09-28T17:13:34.886Z,3.50
2022-09-28T17:16:06.099Z,3.03
2022-09-28T17:18:37.372Z,2.70
2022-09-28T17:21:06.009Z,2.90
2022-09-28T17:23:35.722Z,2.90
2022-09-28T17:26:04.512Z,3.50
2022-09-28T17:28:33.873Z,3.30
2022-09-28T17:31:02.267Z,3.13
2022-09-28T17:33:30.831Z,3.23
2022-09-28T17:36:00.454Z,2.70
2022-09-28T17:38:29.155Z,3.10
2022-09-28T17:40:58.921Z,2.53
2022-09-28T17:43:27.323Z,3.30
2022-09-28T17:45:55.707Z,3.33
2022-09-28T17:48:24.392Z,2.83
2022-09-28T17:50:52.721Z,3.00
2022-09-28T17:53:21.140Z,2.80
2022-09-28T17:55:49.453Z,2.60
2022-09-28T17:58:20.564Z,2.80
2022-09-28T18:00:49.591Z,2.77
2022-09-28T18:03:19.851Z,2.70
2022-09-28T18:05:49.702Z,2.83
2022-09-28T18:08:19.585Z,2.57
2022-09-28T18:10:48.075Z,2.90
2022-09-28T18:13:16.472Z,2.70
2022-09-28T18:15:46.229Z,2.70
2022-09-28T18:18:14.652Z,2.67
2022-09-28T18:20:43.039Z,2.77
2022-09-28T18:23:11.397Z,2.63
2022-09-28T18:25:40.975Z,2.50
2022-09-28T18:28:09.517Z,2.20
2022-09-28T18:30:40.451Z,2.30
2022-09-28T18:33:10.812Z,2.23
2022-09-28T18:35:39.196Z,2.10
2022-09-28T18:38:08.049Z,2.70
2022-09-28T18:40:37.072Z,2.37
2022-09-28T18:43:05.678Z,2.57
2022-09-28T18:45:35.768Z,2.20
2022-09-28T18:48:04.369Z,2.23
2022-09-28T18:50:34.406Z,1.90
2022-09-28T18:53:12.361Z,2.20
2022-09-28T18:55:41.596Z,1.93
2022-09-28T18:58:10.564Z,2.10
2022-09-28T19:00:40.170Z,2.00
2022-09-28T19:03:10.918Z,1.93
2022-09-28T19:05:43.956Z,1.83
2022-09-28T19:08:12.312Z,1.50
2022-09-28T19:10:40.714Z,1.47
2022-09-28T19:13:09.108Z,2.30
2022-09-28T19:15:37.559Z,2.20
2022-09-28T19:18:06.140Z,2.93
2022-09-28T19:20:34.822Z,2.80
2022-09-28T19:23:04.604Z,2.33
2022-09-28T19:25:33.001Z,2.10
2022-09-28T19:28:01.432Z,1.50
2022-09-28T19:30:29.900Z,2.00
2022-09-28T19:32:58.295Z,2.57
2022-09-28T19:35:26.734Z,1.93
2022-09-28T19:37:56.288Z,2.27
2022-09-28T19:40:26.151Z,2.00
2022-09-28T19:42:54.752Z,2.17
2022-09-28T19:45:23.621Z,1.90
2022-09-28T19:47:55.085Z,1.63
2022-09-28T19:50:28.933Z,1.47
2022-09-28T19:53:01.673Z,1.87
2022-09-28T19:55:31.884Z,1.63
2022-09-28T19:58:01.844Z,1.80
2022-09-28T20:00:30.247Z,2.10
2022-09-28T20:02:58.722Z,3.93
2022-09-28T20:05:27.188Z,3.73
2022-09-28T20:07:55.563Z,2.83
2022-09-28T20:10:24.066Z,2.47
2022-09-28T20:12:54.593Z,2.53
2022-09-28T20:15:23.628Z,2.10
2022-09-28T20:17:58.728Z,1.90
2022-09-28T20:20:27.846Z,1.93
2022-09-28T20:22:56.472Z,1.53
2022-09-28T20:25:25.485Z,1.60
2022-09-28T20:27:55.716Z,1.70
2022-09-28T20:30:24.310Z,1.33
2022-09-28T20:32:52.724Z,1.40
2022-09-28T20:35:32.077Z,1.70
2022-09-28T20:38:08.052Z,1.40
2022-09-28T20:40:36.657Z,1.57
2022-09-28T20:43:07.626Z,1.80
2022-09-28T20:45:37.051Z,1.80
2022-09-28T20:48:06.999Z,1.60
2022-09-28T20:50:35.849Z,1.43
2022-09-28T20:53:04.364Z,1.37
2022-09-28T20:55:32.763Z,1.30
2022-09-28T20:58:04.225Z,1.10
2022-09-28T21:00:34.413Z,1.30
2022-09-28T21:03:02.971Z,0.90
2022-09-28T21:05:31.398Z,1.20
2022-09-28T21:08:00.044Z,0.97
2022-09-28T21:10:30.262Z,1.03
2022-09-28T21:12:58.751Z,1.10
2022-09-28T21:15:27.197Z,1.20
2022-09-28T21:17:57.098Z,1.10
2022-09-28T21:20:25.602Z,1.10
2022-09-28T21:22:54.105Z,1.10
2022-09-28T21:25:23.266Z,1.17
2022-09-28T21:27:54.064Z,1.17
2022-09-28T21:30:22.463Z,1.33
2022-09-28T21:32:52.151Z,1.27
2022-09-28T21:35:21.954Z,1.30
2022-09-28T21:37:50.621Z,1.10
2022-09-28T21:40:20.437Z,1.30
2022-09-28T21:42:48.875Z,1.13
2022-09-28T21:45:17.620Z,1.30
2022-09-28T21:47:52.703Z,1.30
2022-09-28T21:50:26.098Z,1.30
2022-09-28T21:52:55.084Z,1.80
2022-09-28T21:55:24.233Z,1.40
2022-09-28T21:57:52.758Z,1.33
2022-09-28T22:00:23.180Z,1.27
2022-09-28T22:02:51.736Z,1.30
2022-09-28T22:05:20.352Z,1.50
2022-09-28T22:07:50.142Z,1.23
2022-09-28T22:10:18.651Z,1.40
2022-09-28T22:12:47.196Z,1.33
2022-09-28T22:15:15.625Z,1.40
2022-09-28T22:17:44.640Z,1.30
2022-09-28T22:20:13.187Z,1.50
2022-09-28T22:22:41.592Z,1.50
2022-09-28T22:25:11.828Z,1.63
2022-09-28T22:27:40.795Z,1.43
2022-09-28T22:30:09.744Z,1.50
2022-09-28T22:32:38.138Z,1.70
2022-09-28T22:35:06.981Z,1.43
2022-09-28T22:37:35.347Z,1.17
2022-09-28T22:40:03.962Z,1.47
2022-09-28T22:42:33.716Z,1.20
2022-09-28T22:45:02.175Z,1.40
2022-09-28T22:47:30.559Z,1.53
2022-09-28T22:49:58.946Z,1.30
2022-09-28T22:52:27.515Z,1.23
2022-09-28T22:54:55.910Z,1.23
2022-09-28T22:57:24.349Z,1.43
2022-09-28T22:59:54.111Z,1.47
2022-09-28T23:02:22.737Z,1.40
2022-09-28T23:04:51.316Z,1.30
2022-09-28T23:07:19.906Z,1.63
2022-09-28T23:09:48.352Z,1.50
2022-09-28T23:12:16.741Z,1.70
2022-09-28T23:14:45.141Z,1.40
2022-09-28T23:17:14.865Z,1.77
2022-09-28T23:19:43.259Z,1.77
2022-09-28T23:22:11.663Z,1.80
2022-09-28T23:24:40.129Z,1.80
2022-09-28T23:27:08.549Z,1.60
2022-09-28T23:29:38.926Z,1.50
2022-09-28T23:32:07.283Z,1.60
2022-09-28T23:34:37.101Z,2.20
2022-09-28T23:37:05.495Z,2.13
2022-09-28T23:39:33.875Z,2.80
2022-09-28T23:42:03.079Z,3.20
2022-09-28T23:44:32.735Z,3.27
2022-09-28T23:47:01.281Z,2.83
2022-09-28T23:49:29.860Z,3.13
2022-09-28T23:51:59.601Z,2.50
2022-09-28T23:54:28.025Z,2.90
2022-09-28T23:56:56.431Z,2.70
2022-09-28T23:59:24.836Z,2.70
